This is the latest recevied weather packets stored in our database for station/object WX6YYZ. If no packets are shown the sender has not sent any weather packets the latest 10 day(s).
| Time | Temp. | Humidity | Pressure | Rain* | Wind** | Luminosity | Snow |
|---|---|---|---|---|---|---|---|
| 1778001413 | 15.56° C | 66% | 1014.9 hPa | 0 mm | - | - | - |
| 1777999305 | 14.44° C | 74% | 1014.9 hPa | 0 mm | - | - | - |
| 1777995996 | 12.78° C | 87% | 1014.6 hPa | 0 mm | - | - | - |
| 1777993825 | 11.67° C | 93% | 1014.2 hPa | 0 mm | - | - | - |
| 1777992194 | 11.11° C | 94% | 1014.2 hPa | 0 mm | - | - | - |
| 1777990389 | 11.11° C | 94% | 1013.9 hPa | 0 mm | - | - | - |
| 1777988551 | 11.11° C | 94% | 1013.9 hPa | 0 mm | - | - | - |
| 1777988250 | 11.11° C | 94% | 1013.9 hPa | 0 mm | - | - | - |
| 1777987617 | 11.11° C | 94% | 1013.9 hPa | 0 mm | - | - | - |
| 1777983580 | 11.11° C | 93% | 1013.5 hPa | 0.25 mm | - | - | - |
| 1777980820 | 11.11° C | 92% | 1013.9 hPa | 1.27 mm | - | - | - |
| 1777979886 | 11.67° C | 92% | 1013.5 hPa | 1.02 mm | - | - | - |
| 1777978651 | 11.67° C | 91% | 1013.9 hPa | 0.25 mm | - | - | - |
| 1777976813 | 12.22° C | 89% | 1013.5 hPa | 0 mm | - | - | - |
| 1777975911 | 12.22° C | 88% | 1013.9 hPa | 0 mm | - | - | - |
| 1777974406 | 12.78° C | 85% | 1013.9 hPa | 0 mm | - | - | - |
| 1777969828 | 12.78° C | 82% | 1014.6 hPa | 0 mm | - | - | - |
| 1777968624 | 12.78° C | 82% | 1014.9 hPa | 0 mm | - | - | - |
| 1777966486 | 12.78° C | 82% | 1014.9 hPa | 0 mm | - | - | - |
| 1777962542 | 12.78° C | 80% | 1015.2 hPa | 0 mm | - | - | - |
| 1777960435 | 13.33° C | 80% | 1014.9 hPa | 0 mm | - | - | - |
| 1777959803 | 13.33° C | 79% | 1014.9 hPa | 0 mm | - | - | - |
| 1777957997 | 13.33° C | 77% | 1015.2 hPa | 0 mm | - | - | - |
| 1777957094 | 13.33° C | 77% | 1015.2 hPa | 0 mm | - | - | - |
| 1777955859 | 13.33° C | 78% | 1015.6 hPa | 0 mm | - | - | - |
* Rain latest hour (hover to see other rain measurements)
** Current wind speed in m/s (hover to see current wind gust speed)